CMB835 Details

Departure: Biggs Army Airfield (Fort Bliss) (KBIF)
Arrival: Joint Base McGuire Dix Lakehurst (KWRI) at N/A
Route: CME J26 PNH IFI J8 STL J110 VHP ROD J152 HAR
Notes: USTRANSCOM CONTRACT FLIGHT


Current Weather Information
KBIF 190658Z AUTO 29011G18KT 10SM CLR 20/00 A2990 RMK AO2 SLP065 T02021004 $
KWRI 190756Z AUTO 00000KT 10SM CLR 03/02 A3003 RMK AO2 SLP169 T00340024